sensor_id;sensor_type;location;lat;lon;timestamp;P1;durP1;ratioP1;P2;durP2;ratioP2
72926;SDS011;61071;51.618;19.388;2022-10-16T00:01:25;12.13;;;8.10;;
72926;SDS011;61071;51.618;19.388;2022-10-16T00:03:54;11.90;;;8.48;;
72926;SDS011;61071;51.618;19.388;2022-10-16T00:06:23;14.82;;;8.48;;
72926;SDS011;61071;51.618;19.388;2022-10-16T00:08:50;13.05;;;8.25;;
72926;SDS011;61071;51.618;19.388;2022-10-16T00:11:19;15.18;;;9.02;;
72926;SDS011;61071;51.618;19.388;2022-10-16T00:13:58;14.70;;;9.40;;
72926;SDS011;61071;51.618;19.388;2022-10-16T00:16:27;13.40;;;8.95;;
72926;SDS011;61071;51.618;19.388;2022-10-16T00:18:53;11.23;;;8.15;;
72926;SDS011;61071;51.618;19.388;2022-10-16T00:21:24;12.85;;;8.13;;
72926;SDS011;61071;51.618;19.388;2022-10-16T00:23:55;14.60;;;9.35;;
72926;SDS011;61071;51.618;19.388;2022-10-16T00:26:27;14.23;;;8.80;;
72926;SDS011;61071;51.618;19.388;2022-10-16T00:28:54;14.63;;;8.45;;
72926;SDS011;61071;51.618;19.388;2022-10-16T00:31:21;14.32;;;8.90;;
72926;SDS011;61071;51.618;19.388;2022-10-16T00:33:48;13.07;;;9.10;;
72926;SDS011;61071;51.618;19.388;2022-10-16T00:36:16;15.95;;;8.68;;
72926;SDS011;61071;51.618;19.388;2022-10-16T00:38:52;11.82;;;9.05;;
72926;SDS011;61071;51.618;19.388;2022-10-16T00:41:20;14.95;;;8.50;;
72926;SDS011;61071;51.618;19.388;2022-10-16T00:51:47;13.23;;;8.60;;
72926;SDS011;61071;51.618;19.388;2022-10-16T00:54:22;13.23;;;8.63;;
72926;SDS011;61071;51.618;19.388;2022-10-16T00:56:52;15.38;;;9.38;;
72926;SDS011;61071;51.618;19.388;2022-10-16T00:59:24;14.45;;;9.27;;
72926;SDS011;61071;51.618;19.388;2022-10-16T01:01:54;11.75;;;8.48;;
72926;SDS011;61071;51.618;19.388;2022-10-16T01:04:22;11.93;;;9.38;;
72926;SDS011;61071;51.618;19.388;2022-10-16T01:06:52;16.15;;;9.40;;
72926;SDS011;61071;51.618;19.388;2022-10-16T01:09:30;15.73;;;9.52;;
72926;SDS011;61071;51.618;19.388;2022-10-16T01:12:33;13.32;;;9.15;;
72926;SDS011;61071;51.618;19.388;2022-10-16T01:17:48;18.42;;;9.35;;
72926;SDS011;61071;51.618;19.388;2022-10-16T01:25:55;16.88;;;10.25;;
72926;SDS011;61071;51.618;19.388;2022-10-16T01:28:51;14.60;;;10.07;;
72926;SDS011;61071;51.618;19.388;2022-10-16T01:31:33;15.00;;;9.52;;
72926;SDS011;61071;51.618;19.388;2022-10-16T01:36:45;16.67;;;10.05;;
72926;SDS011;61071;51.618;19.388;2022-10-16T01:39:18;16.92;;;10.40;;
72926;SDS011;61071;51.618;19.388;2022-10-16T01:41:54;19.17;;;10.05;;
72926;SDS011;61071;51.618;19.388;2022-10-16T01:44:55;14.05;;;9.75;;
72926;SDS011;61071;51.618;19.388;2022-10-16T01:47:24;16.30;;;10.35;;
72926;SDS011;61071;51.618;19.388;2022-10-16T01:49:52;15.10;;;10.38;;
72926;SDS011;61071;51.618;19.388;2022-10-16T01:52:22;17.00;;;10.73;;
72926;SDS011;61071;51.618;19.388;2022-10-16T01:54:52;17.55;;;10.18;;
72926;SDS011;61071;51.618;19.388;2022-10-16T01:57:21;13.57;;;9.90;;
72926;SDS011;61071;51.618;19.388;2022-10-16T01:59:52;15.70;;;10.60;;
72926;SDS011;61071;51.618;19.388;2022-10-16T02:02:26;16.95;;;10.38;;
72926;SDS011;61071;51.618;19.388;2022-10-16T02:05:08;16.17;;;10.52;;
72926;SDS011;61071;51.618;19.388;2022-10-16T02:07:43;15.80;;;10.45;;
72926;SDS011;61071;51.618;19.388;2022-10-16T02:10:09;15.88;;;11.35;;
72926;SDS011;61071;51.618;19.388;2022-10-16T02:12:36;16.40;;;11.20;;
72926;SDS011;61071;51.618;19.388;2022-10-16T02:15:08;15.90;;;11.38;;
72926;SDS011;61071;51.618;19.388;2022-10-16T02:17:34;18.23;;;12.38;;
72926;SDS011;61071;51.618;19.388;2022-10-16T02:20:00;19.83;;;12.30;;
72926;SDS011;61071;51.618;19.388;2022-10-16T02:22:28;18.63;;;11.93;;
72926;SDS011;61071;51.618;19.388;2022-10-16T02:27:55;16.70;;;11.68;;
72926;SDS011;61071;51.618;19.388;2022-10-16T02:33:01;19.92;;;12.10;;
72926;SDS011;61071;51.618;19.388;2022-10-16T02:35:31;21.63;;;11.93;;
72926;SDS011;61071;51.618;19.388;2022-10-16T02:37:58;19.88;;;12.07;;
72926;SDS011;61071;51.618;19.388;2022-10-16T02:40:25;17.33;;;12.05;;
72926;SDS011;61071;51.618;19.388;2022-10-16T02:42:52;20.65;;;12.57;;
72926;SDS011;61071;51.618;19.388;2022-10-16T02:45:20;19.25;;;12.25;;
72926;SDS011;61071;51.618;19.388;2022-10-16T02:47:46;24.35;;;12.98;;
72926;SDS011;61071;51.618;19.388;2022-10-16T02:50:12;23.30;;;13.35;;
72926;SDS011;61071;51.618;19.388;2022-10-16T02:52:38;21.90;;;12.85;;
72926;SDS011;61071;51.618;19.388;2022-10-16T02:55:04;19.17;;;12.70;;
72926;SDS011;61071;51.618;19.388;2022-10-16T02:57:30;17.33;;;12.88;;
72926;SDS011;61071;51.618;19.388;2022-10-16T02:59:56;19.33;;;12.30;;
72926;SDS011;61071;51.618;19.388;2022-10-16T03:02:23;20.45;;;13.15;;
72926;SDS011;61071;51.618;19.388;2022-10-16T03:04:48;22.80;;;13.73;;
72926;SDS011;61071;51.618;19.388;2022-10-16T03:07:14;21.05;;;14.18;;
72926;SDS011;61071;51.618;19.388;2022-10-16T03:09:40;22.38;;;13.38;;
72926;SDS011;61071;51.618;19.388;2022-10-16T03:12:06;23.73;;;13.43;;
72926;SDS011;61071;51.618;19.388;2022-10-16T03:14:31;20.45;;;13.95;;
72926;SDS011;61071;51.618;19.388;2022-10-16T03:16:58;23.90;;;14.70;;
72926;SDS011;61071;51.618;19.388;2022-10-16T03:19:24;23.98;;;15.55;;
72926;SDS011;61071;51.618;19.388;2022-10-16T03:21:50;25.20;;;15.18;;
72926;SDS011;61071;51.618;19.388;2022-10-16T03:24:15;23.05;;;13.82;;
72926;SDS011;61071;51.618;19.388;2022-10-16T03:26:41;27.05;;;14.13;;
72926;SDS011;61071;51.618;19.388;2022-10-16T03:29:07;20.23;;;14.18;;
72926;SDS011;61071;51.618;19.388;2022-10-16T03:31:33;23.45;;;14.25;;
72926;SDS011;61071;51.618;19.388;2022-10-16T03:33:58;20.42;;;14.50;;
72926;SDS011;61071;51.618;19.388;2022-10-16T03:36:24;23.10;;;14.65;;
72926;SDS011;61071;51.618;19.388;2022-10-16T03:38:50;17.52;;;13.10;;
72926;SDS011;61071;51.618;19.388;2022-10-16T03:41:15;28.05;;;15.15;;
72926;SDS011;61071;51.618;19.388;2022-10-16T03:43:41;19.80;;;14.55;;
72926;SDS011;61071;51.618;19.388;2022-10-16T03:46:07;21.98;;;15.05;;
72926;SDS011;61071;51.618;19.388;2022-10-16T03:48:33;19.58;;;14.48;;
72926;SDS011;61071;51.618;19.388;2022-10-16T03:50:59;20.15;;;14.38;;
72926;SDS011;61071;51.618;19.388;2022-10-16T03:53:24;25.45;;;15.00;;
72926;SDS011;61071;51.618;19.388;2022-10-16T03:55:50;22.20;;;14.23;;
72926;SDS011;61071;51.618;19.388;2022-10-16T03:58:16;23.00;;;15.13;;
72926;SDS011;61071;51.618;19.388;2022-10-16T04:00:42;24.83;;;14.93;;
72926;SDS011;61071;51.618;19.388;2022-10-16T04:03:10;24.98;;;14.57;;
72926;SDS011;61071;51.618;19.388;2022-10-16T04:05:37;23.42;;;15.07;;
72926;SDS011;61071;51.618;19.388;2022-10-16T04:08:03;21.13;;;14.63;;
72926;SDS011;61071;51.618;19.388;2022-10-16T04:10:29;21.45;;;13.95;;
72926;SDS011;61071;51.618;19.388;2022-10-16T04:12:55;22.10;;;14.82;;
72926;SDS011;61071;51.618;19.388;2022-10-16T04:15:21;26.25;;;15.35;;
72926;SDS011;61071;51.618;19.388;2022-10-16T04:17:50;22.73;;;14.15;;
72926;SDS011;61071;51.618;19.388;2022-10-16T04:20:17;21.17;;;14.15;;
72926;SDS011;61071;51.618;19.388;2022-10-16T04:22:43;22.20;;;15.27;;
72926;SDS011;61071;51.618;19.388;2022-10-16T04:25:09;22.67;;;14.55;;
72926;SDS011;61071;51.618;19.388;2022-10-16T04:27:36;22.23;;;13.77;;
72926;SDS011;61071;51.618;19.388;2022-10-16T04:30:03;20.70;;;14.25;;
72926;SDS011;61071;51.618;19.388;2022-10-16T04:32:30;23.73;;;14.77;;
72926;SDS011;61071;51.618;19.388;2022-10-16T04:34:55;21.63;;;13.68;;
72926;SDS011;61071;51.618;19.388;2022-10-16T04:37:24;20.63;;;13.95;;
72926;SDS011;61071;51.618;19.388;2022-10-16T04:39:51;20.85;;;14.00;;
72926;SDS011;61071;51.618;19.388;2022-10-16T04:42:18;20.83;;;14.05;;
72926;SDS011;61071;51.618;19.388;2022-10-16T04:44:44;20.63;;;14.10;;
72926;SDS011;61071;51.618;19.388;2022-10-16T04:47:10;24.33;;;14.80;;
72926;SDS011;61071;51.618;19.388;2022-10-16T04:49:36;19.67;;;13.52;;
72926;SDS011;61071;51.618;19.388;2022-10-16T04:52:01;20.58;;;13.93;;
72926;SDS011;61071;51.618;19.388;2022-10-16T04:54:27;22.98;;;14.65;;
72926;SDS011;61071;51.618;19.388;2022-10-16T04:56:53;18.92;;;13.73;;
72926;SDS011;61071;51.618;19.388;2022-10-16T04:59:19;20.90;;;14.38;;
72926;SDS011;61071;51.618;19.388;2022-10-16T05:01:45;22.30;;;13.73;;
72926;SDS011;61071;51.618;19.388;2022-10-16T05:04:11;19.33;;;13.93;;
72926;SDS011;61071;51.618;19.388;2022-10-16T05:06:37;21.08;;;14.00;;
72926;SDS011;61071;51.618;19.388;2022-10-16T05:09:04;18.85;;;13.60;;
72926;SDS011;61071;51.618;19.388;2022-10-16T05:11:31;19.80;;;13.57;;
72926;SDS011;61071;51.618;19.388;2022-10-16T05:13:57;19.90;;;12.80;;
72926;SDS011;61071;51.618;19.388;2022-10-16T05:16:22;21.50;;;14.10;;
72926;SDS011;61071;51.618;19.388;2022-10-16T05:18:48;21.70;;;13.20;;
72926;SDS011;61071;51.618;19.388;2022-10-16T05:21:14;22.38;;;13.52;;
72926;SDS011;61071;51.618;19.388;2022-10-16T05:23:39;21.85;;;12.93;;
72926;SDS011;61071;51.618;19.388;2022-10-16T05:26:05;20.05;;;13.50;;
72926;SDS011;61071;51.618;19.388;2022-10-16T05:28:31;19.63;;;13.52;;
72926;SDS011;61071;51.618;19.388;2022-10-16T05:30:57;18.92;;;13.52;;
72926;SDS011;61071;51.618;19.388;2022-10-16T05:33:24;20.98;;;13.95;;
72926;SDS011;61071;51.618;19.388;2022-10-16T05:35:51;19.33;;;13.45;;
72926;SDS011;61071;51.618;19.388;2022-10-16T05:38:17;18.67;;;13.90;;
72926;SDS011;61071;51.618;19.388;2022-10-16T05:40:49;18.48;;;12.55;;
72926;SDS011;61071;51.618;19.388;2022-10-16T05:43:17;18.95;;;12.98;;
72926;SDS011;61071;51.618;19.388;2022-10-16T05:45:43;21.65;;;12.75;;
72926;SDS011;61071;51.618;19.388;2022-10-16T05:48:08;18.60;;;12.40;;
72926;SDS011;61071;51.618;19.388;2022-10-16T05:50:34;17.35;;;13.13;;
72926;SDS011;61071;51.618;19.388;2022-10-16T05:53:00;21.10;;;13.30;;
72926;SDS011;61071;51.618;19.388;2022-10-16T05:55:25;20.23;;;13.00;;
72926;SDS011;61071;51.618;19.388;2022-10-16T05:57:53;21.45;;;13.43;;
72926;SDS011;61071;51.618;19.388;2022-10-16T06:00:19;19.50;;;13.25;;
72926;SDS011;61071;51.618;19.388;2022-10-16T06:02:45;19.02;;;13.90;;
72926;SDS011;61071;51.618;19.388;2022-10-16T06:05:11;16.88;;;12.13;;
72926;SDS011;61071;51.618;19.388;2022-10-16T06:07:37;17.00;;;12.55;;
72926;SDS011;61071;51.618;19.388;2022-10-16T06:10:03;16.52;;;12.77;;
72926;SDS011;61071;51.618;19.388;2022-10-16T06:12:30;17.33;;;11.82;;
72926;SDS011;61071;51.618;19.388;2022-10-16T06:14:55;18.30;;;12.77;;
72926;SDS011;61071;51.618;19.388;2022-10-16T06:17:21;17.27;;;12.10;;
72926;SDS011;61071;51.618;19.388;2022-10-16T06:19:46;18.15;;;11.80;;
72926;SDS011;61071;51.618;19.388;2022-10-16T06:22:12;19.20;;;13.18;;
72926;SDS011;61071;51.618;19.388;2022-10-16T06:24:38;18.58;;;12.80;;
72926;SDS011;61071;51.618;19.388;2022-10-16T06:27:04;20.85;;;12.90;;
72926;SDS011;61071;51.618;19.388;2022-10-16T06:29:30;21.35;;;13.07;;
72926;SDS011;61071;51.618;19.388;2022-10-16T06:31:55;20.50;;;12.80;;
72926;SDS011;61071;51.618;19.388;2022-10-16T06:34:21;17.27;;;12.35;;
72926;SDS011;61071;51.618;19.388;2022-10-16T06:36:47;25.33;;;12.45;;
72926;SDS011;61071;51.618;19.388;2022-10-16T06:39:12;16.63;;;11.85;;
72926;SDS011;61071;51.618;19.388;2022-10-16T06:41:38;19.30;;;12.52;;
72926;SDS011;61071;51.618;19.388;2022-10-16T06:44:07;16.40;;;11.48;;
72926;SDS011;61071;51.618;19.388;2022-10-16T06:46:33;16.70;;;12.13;;
72926;SDS011;61071;51.618;19.388;2022-10-16T06:48:59;20.02;;;12.10;;
72926;SDS011;61071;51.618;19.388;2022-10-16T06:51:24;22.27;;;12.38;;
72926;SDS011;61071;51.618;19.388;2022-10-16T06:53:51;19.58;;;11.95;;
72926;SDS011;61071;51.618;19.388;2022-10-16T06:56:25;19.73;;;13.10;;
72926;SDS011;61071;51.618;19.388;2022-10-16T06:58:52;18.00;;;12.80;;
72926;SDS011;61071;51.618;19.388;2022-10-16T07:01:20;20.60;;;12.75;;
72926;SDS011;61071;51.618;19.388;2022-10-16T07:03:48;17.85;;;12.73;;
72926;SDS011;61071;51.618;19.388;2022-10-16T07:06:15;18.25;;;12.65;;
72926;SDS011;61071;51.618;19.388;2022-10-16T07:08:44;20.63;;;13.48;;
72926;SDS011;61071;51.618;19.388;2022-10-16T07:11:15;20.38;;;13.23;;
72926;SDS011;61071;51.618;19.388;2022-10-16T07:13:47;18.95;;;13.73;;
72926;SDS011;61071;51.618;19.388;2022-10-16T07:16:18;16.25;;;12.05;;
72926;SDS011;61071;51.618;19.388;2022-10-16T07:18:47;19.90;;;12.70;;
72926;SDS011;61071;51.618;19.388;2022-10-16T07:21:20;19.48;;;12.65;;
72926;SDS011;61071;51.618;19.388;2022-10-16T07:23:54;19.77;;;13.13;;
72926;SDS011;61071;51.618;19.388;2022-10-16T07:26:26;20.23;;;14.15;;
72926;SDS011;61071;51.618;19.388;2022-10-16T07:28:55;21.65;;;13.95;;
72926;SDS011;61071;51.618;19.388;2022-10-16T07:31:22;21.45;;;13.88;;
72926;SDS011;61071;51.618;19.388;2022-10-16T07:33:48;18.48;;;12.75;;
72926;SDS011;61071;51.618;19.388;2022-10-16T07:36:15;18.10;;;12.88;;
72926;SDS011;61071;51.618;19.388;2022-10-16T07:38:43;19.10;;;13.60;;
72926;SDS011;61071;51.618;19.388;2022-10-16T07:41:16;21.13;;;13.93;;
72926;SDS011;61071;51.618;19.388;2022-10-16T07:43:47;21.13;;;14.00;;
72926;SDS011;61071;51.618;19.388;2022-10-16T07:46:16;18.15;;;13.63;;
72926;SDS011;61071;51.618;19.388;2022-10-16T07:48:43;23.60;;;14.00;;
72926;SDS011;61071;51.618;19.388;2022-10-16T07:51:12;22.88;;;14.43;;
72926;SDS011;61071;51.618;19.388;2022-10-16T07:53:40;24.27;;;13.10;;
72926;SDS011;61071;51.618;19.388;2022-10-16T07:56:06;19.60;;;13.43;;
72926;SDS011;61071;51.618;19.388;2022-10-16T07:58:34;18.05;;;12.82;;
72926;SDS011;61071;51.618;19.388;2022-10-16T08:01:06;25.10;;;14.93;;
72926;SDS011;61071;51.618;19.388;2022-10-16T08:03:38;21.67;;;13.93;;
72926;SDS011;61071;51.618;19.388;2022-10-16T08:06:07;23.88;;;13.57;;
72926;SDS011;61071;51.618;19.388;2022-10-16T08:08:32;22.63;;;13.77;;
72926;SDS011;61071;51.618;19.388;2022-10-16T08:10:58;23.05;;;14.30;;
72926;SDS011;61071;51.618;19.388;2022-10-16T08:13:24;22.05;;;14.10;;
72926;SDS011;61071;51.618;19.388;2022-10-16T08:15:51;23.20;;;13.57;;
72926;SDS011;61071;51.618;19.388;2022-10-16T08:18:18;16.83;;;12.88;;
72926;SDS011;61071;51.618;19.388;2022-10-16T08:20:44;20.73;;;14.05;;
72926;SDS011;61071;51.618;19.388;2022-10-16T08:23:13;19.05;;;13.32;;
72926;SDS011;61071;51.618;19.388;2022-10-16T08:25:39;21.08;;;13.57;;
72926;SDS011;61071;51.618;19.388;2022-10-16T08:28:06;18.65;;;12.98;;
72926;SDS011;61071;51.618;19.388;2022-10-16T08:30:34;19.90;;;13.40;;
72926;SDS011;61071;51.618;19.388;2022-10-16T08:33:00;23.23;;;14.63;;
72926;SDS011;61071;51.618;19.388;2022-10-16T08:35:27;18.77;;;13.68;;
72926;SDS011;61071;51.618;19.388;2022-10-16T08:37:53;19.05;;;13.30;;
72926;SDS011;61071;51.618;19.388;2022-10-16T08:40:20;18.83;;;13.52;;
72926;SDS011;61071;51.618;19.388;2022-10-16T08:49:05;19.80;;;13.45;;
72926;SDS011;61071;51.618;19.388;2022-10-16T08:51:40;21.00;;;12.55;;
72926;SDS011;61071;51.618;19.388;2022-10-16T08:54:26;18.15;;;13.02;;
72926;SDS011;61071;51.618;19.388;2022-10-16T08:57:13;19.77;;;13.25;;
72926;SDS011;61071;51.618;19.388;2022-10-16T08:59:45;23.88;;;13.80;;
72926;SDS011;61071;51.618;19.388;2022-10-16T09:16:39;25.02;;;13.15;;
72926;SDS011;61071;51.618;19.388;2022-10-16T09:19:19;18.40;;;12.70;;
72926;SDS011;61071;51.618;19.388;2022-10-16T09:21:54;18.95;;;13.85;;
72926;SDS011;61071;51.618;19.388;2022-10-16T09:24:23;23.90;;;14.57;;
72926;SDS011;61071;51.618;19.388;2022-10-16T09:26:51;21.13;;;14.63;;
72926;SDS011;61071;51.618;19.388;2022-10-16T09:29:18;21.83;;;13.98;;
72926;SDS011;61071;51.618;19.388;2022-10-16T09:31:46;20.27;;;13.93;;
72926;SDS011;61071;51.618;19.388;2022-10-16T09:34:35;21.40;;;14.50;;
72926;SDS011;61071;51.618;19.388;2022-10-16T09:37:12;22.52;;;13.43;;
72926;SDS011;61071;51.618;19.388;2022-10-16T09:39:47;17.35;;;13.32;;
72926;SDS011;61071;51.618;19.388;2022-10-16T09:42:28;19.77;;;13.63;;
72926;SDS011;61071;51.618;19.388;2022-10-16T09:45:01;19.70;;;14.40;;
72926;SDS011;61071;51.618;19.388;2022-10-16T09:47:29;21.13;;;13.90;;
72926;SDS011;61071;51.618;19.388;2022-10-16T09:50:00;21.67;;;13.43;;
72926;SDS011;61071;51.618;19.388;2022-10-16T09:52:44;24.08;;;13.77;;
72926;SDS011;61071;51.618;19.388;2022-10-16T09:55:14;20.42;;;13.48;;
72926;SDS011;61071;51.618;19.388;2022-10-16T09:57:50;20.05;;;12.38;;
72926;SDS011;61071;51.618;19.388;2022-10-16T10:00:20;19.52;;;12.63;;
72926;SDS011;61071;51.618;19.388;2022-10-16T10:02:48;18.15;;;12.43;;
72926;SDS011;61071;51.618;19.388;2022-10-16T10:05:20;16.95;;;11.38;;
72926;SDS011;61071;51.618;19.388;2022-10-16T10:07:57;18.02;;;11.23;;
72926;SDS011;61071;51.618;19.388;2022-10-16T10:10:27;14.52;;;10.90;;
72926;SDS011;61071;51.618;19.388;2022-10-16T10:12:56;18.05;;;11.55;;
72926;SDS011;61071;51.618;19.388;2022-10-16T10:15:23;22.17;;;11.63;;
72926;SDS011;61071;51.618;19.388;2022-10-16T10:17:55;14.80;;;11.27;;
72926;SDS011;61071;51.618;19.388;2022-10-16T10:22:59;16.45;;;10.48;;
72926;SDS011;61071;51.618;19.388;2022-10-16T10:29:04;16.10;;;9.38;;
72926;SDS011;61071;51.618;19.388;2022-10-16T10:31:58;16.45;;;10.13;;
72926;SDS011;61071;51.618;19.388;2022-10-16T10:41:08;14.05;;;9.38;;
72926;SDS011;61071;51.618;19.388;2022-10-16T10:44:01;15.20;;;8.77;;
72926;SDS011;61071;51.618;19.388;2022-10-16T10:46:56;10.77;;;8.20;;
72926;SDS011;61071;51.618;19.388;2022-10-16T10:58:10;11.38;;;8.00;;
72926;SDS011;61071;51.618;19.388;2022-10-16T11:01:19;10.60;;;7.60;;
72926;SDS011;61071;51.618;19.388;2022-10-16T11:07:31;11.45;;;7.85;;
72926;SDS011;61071;51.618;19.388;2022-10-16T11:10:13;12.57;;;8.77;;
72926;SDS011;61071;51.618;19.388;2022-10-16T11:12:47;11.27;;;8.32;;
72926;SDS011;61071;51.618;19.388;2022-10-16T11:15:42;9.80;;;7.55;;
72926;SDS011;61071;51.618;19.388;2022-10-16T11:18:15;13.85;;;7.43;;
72926;SDS011;61071;51.618;19.388;2022-10-16T11:20:53;13.20;;;8.32;;
72926;SDS011;61071;51.618;19.388;2022-10-16T11:26:26;12.68;;;7.38;;
72926;SDS011;61071;51.618;19.388;2022-10-16T11:29:04;11.52;;;7.80;;
72926;SDS011;61071;51.618;19.388;2022-10-16T11:31:57;17.23;;;7.55;;
72926;SDS011;61071;51.618;19.388;2022-10-16T11:34:33;9.57;;;6.60;;
72926;SDS011;61071;51.618;19.388;2022-10-16T11:37:12;10.45;;;6.53;;
72926;SDS011;61071;51.618;19.388;2022-10-16T11:39:57;10.40;;;7.30;;
72926;SDS011;61071;51.618;19.388;2022-10-16T11:43:04;13.10;;;7.03;;
72926;SDS011;61071;51.618;19.388;2022-10-16T11:45:58;10.77;;;6.93;;
72926;SDS011;61071;51.618;19.388;2022-10-16T11:57:44;9.75;;;6.32;;
72926;SDS011;61071;51.618;19.388;2022-10-16T12:06:11;10.38;;;7.15;;
72926;SDS011;61071;51.618;19.388;2022-10-16T12:08:51;10.80;;;7.30;;
72926;SDS011;61071;51.618;19.388;2022-10-16T12:14:06;12.13;;;7.05;;
72926;SDS011;61071;51.618;19.388;2022-10-16T12:16:54;11.68;;;7.38;;
72926;SDS011;61071;51.618;19.388;2022-10-16T12:19:25;8.40;;;6.32;;
72926;SDS011;61071;51.618;19.388;2022-10-16T12:21:59;11.02;;;6.68;;
72926;SDS011;61071;51.618;19.388;2022-10-16T12:30:00;9.55;;;6.93;;
72926;SDS011;61071;51.618;19.388;2022-10-16T12:32:34;12.80;;;7.05;;
72926;SDS011;61071;51.618;19.388;2022-10-16T12:35:04;9.80;;;7.57;;
72926;SDS011;61071;51.618;19.388;2022-10-16T12:37:42;11.27;;;7.57;;
72926;SDS011;61071;51.618;19.388;2022-10-16T12:40:13;12.98;;;7.45;;
72926;SDS011;61071;51.618;19.388;2022-10-16T12:42:56;11.05;;;7.18;;
72926;SDS011;61071;51.618;19.388;2022-10-16T12:47:57;11.82;;;7.13;;
72926;SDS011;61071;51.618;19.388;2022-10-16T12:50:37;9.20;;;6.78;;
72926;SDS011;61071;51.618;19.388;2022-10-16T12:53:19;8.45;;;7.20;;
72926;SDS011;61071;51.618;19.388;2022-10-16T13:02:18;11.77;;;8.05;;
72926;SDS011;61071;51.618;19.388;2022-10-16T13:10:28;10.85;;;8.25;;
72926;SDS011;61071;51.618;19.388;2022-10-16T13:15:56;10.73;;;7.75;;
72926;SDS011;61071;51.618;19.388;2022-10-16T13:18:54;15.82;;;8.43;;
72926;SDS011;61071;51.618;19.388;2022-10-16T13:24:36;9.85;;;7.13;;
72926;SDS011;61071;51.618;19.388;2022-10-16T13:30:38;12.73;;;7.22;;
72926;SDS011;61071;51.618;19.388;2022-10-16T13:36:02;10.02;;;7.15;;
72926;SDS011;61071;51.618;19.388;2022-10-16T13:38:30;8.38;;;6.55;;
72926;SDS011;61071;51.618;19.388;2022-10-16T13:41:11;13.15;;;7.60;;
72926;SDS011;61071;51.618;19.388;2022-10-16T13:43:45;8.98;;;7.20;;
72926;SDS011;61071;51.618;19.388;2022-10-16T13:46:17;10.75;;;7.30;;
72926;SDS011;61071;51.618;19.388;2022-10-16T13:48:55;8.57;;;6.75;;
72926;SDS011;61071;51.618;19.388;2022-10-16T13:51:23;10.80;;;7.22;;
72926;SDS011;61071;51.618;19.388;2022-10-16T13:53:49;11.55;;;7.50;;
72926;SDS011;61071;51.618;19.388;2022-10-16T13:56:19;9.45;;;7.07;;
72926;SDS011;61071;51.618;19.388;2022-10-16T13:59:48;13.55;;;7.85;;
72926;SDS011;61071;51.618;19.388;2022-10-16T14:01:59;9.20;;;7.05;;
72926;SDS011;61071;51.618;19.388;2022-10-16T14:04:41;14.10;;;7.38;;
72926;SDS011;61071;51.618;19.388;2022-10-16T14:07:12;14.13;;;7.78;;
72926;SDS011;61071;51.618;19.388;2022-10-16T14:09:47;10.57;;;7.53;;
72926;SDS011;61071;51.618;19.388;2022-10-16T14:12:15;10.20;;;7.53;;
72926;SDS011;61071;51.618;19.388;2022-10-16T14:14:42;13.68;;;9.35;;
72926;SDS011;61071;51.618;19.388;2022-10-16T14:17:22;24.73;;;15.25;;
72926;SDS011;61071;51.618;19.388;2022-10-16T14:19:55;24.30;;;12.10;;
72926;SDS011;61071;51.618;19.388;2022-10-16T14:22:32;15.35;;;9.82;;
72926;SDS011;61071;51.618;19.388;2022-10-16T14:28:04;15.07;;;8.95;;
72926;SDS011;61071;51.618;19.388;2022-10-16T14:30:34;12.45;;;8.20;;
72926;SDS011;61071;51.618;19.388;2022-10-16T14:33:03;9.90;;;8.13;;
72926;SDS011;61071;51.618;19.388;2022-10-16T14:35:32;11.95;;;8.07;;
72926;SDS011;61071;51.618;19.388;2022-10-16T14:38:03;12.52;;;8.32;;
72926;SDS011;61071;51.618;19.388;2022-10-16T14:40:32;13.63;;;8.38;;
72926;SDS011;61071;51.618;19.388;2022-10-16T14:43:02;13.45;;;8.50;;
72926;SDS011;61071;51.618;19.388;2022-10-16T14:45:30;13.13;;;9.07;;
72926;SDS011;61071;51.618;19.388;2022-10-16T14:48:01;10.98;;;7.90;;
72926;SDS011;61071;51.618;19.388;2022-10-16T14:50:39;15.95;;;8.05;;
72926;SDS011;61071;51.618;19.388;2022-10-16T14:53:11;11.30;;;8.00;;
72926;SDS011;61071;51.618;19.388;2022-10-16T14:55:41;13.10;;;8.18;;
72926;SDS011;61071;51.618;19.388;2022-10-16T14:58:28;12.05;;;8.40;;
72926;SDS011;61071;51.618;19.388;2022-10-16T15:00:53;14.60;;;9.02;;
72926;SDS011;61071;51.618;19.388;2022-10-16T15:03:21;12.13;;;8.05;;
72926;SDS011;61071;51.618;19.388;2022-10-16T15:05:46;11.75;;;8.77;;
72926;SDS011;61071;51.618;19.388;2022-10-16T15:08:13;13.43;;;9.50;;
72926;SDS011;61071;51.618;19.388;2022-10-16T15:10:39;17.55;;;9.20;;
72926;SDS011;61071;51.618;19.388;2022-10-16T15:13:11;15.95;;;9.25;;
72926;SDS011;61071;51.618;19.388;2022-10-16T15:15:42;12.55;;;9.43;;
72926;SDS011;61071;51.618;19.388;2022-10-16T15:18:10;12.68;;;10.23;;
72926;SDS011;61071;51.618;19.388;2022-10-16T15:20:37;16.10;;;8.57;;
72926;SDS011;61071;51.618;19.388;2022-10-16T15:23:14;12.45;;;8.48;;
72926;SDS011;61071;51.618;19.388;2022-10-16T15:25:44;12.25;;;8.85;;
72926;SDS011;61071;51.618;19.388;2022-10-16T15:28:15;12.32;;;8.60;;
72926;SDS011;61071;51.618;19.388;2022-10-16T15:30:42;13.60;;;9.13;;
72926;SDS011;61071;51.618;19.388;2022-10-16T15:33:15;13.05;;;9.45;;
72926;SDS011;61071;51.618;19.388;2022-10-16T15:35:47;14.98;;;10.48;;
72926;SDS011;61071;51.618;19.388;2022-10-16T15:38:17;24.67;;;10.90;;
72926;SDS011;61071;51.618;19.388;2022-10-16T15:40:45;14.15;;;10.32;;
72926;SDS011;61071;51.618;19.388;2022-10-16T15:43:13;12.35;;;9.68;;
72926;SDS011;61071;51.618;19.388;2022-10-16T15:45:39;15.27;;;9.90;;
72926;SDS011;61071;51.618;19.388;2022-10-16T15:48:05;15.73;;;10.05;;
72926;SDS011;61071;51.618;19.388;2022-10-16T15:50:35;17.17;;;9.95;;
72926;SDS011;61071;51.618;19.388;2022-10-16T15:53:03;16.20;;;10.82;;
72926;SDS011;61071;51.618;19.388;2022-10-16T15:55:29;15.98;;;10.45;;
72926;SDS011;61071;51.618;19.388;2022-10-16T15:57:54;13.30;;;9.63;;
72926;SDS011;61071;51.618;19.388;2022-10-16T16:00:20;14.52;;;10.77;;
72926;SDS011;61071;51.618;19.388;2022-10-16T16:02:50;13.70;;;10.02;;
72926;SDS011;61071;51.618;19.388;2022-10-16T16:05:18;19.15;;;11.55;;
72926;SDS011;61071;51.618;19.388;2022-10-16T16:07:46;13.80;;;10.45;;
72926;SDS011;61071;51.618;19.388;2022-10-16T16:10:13;17.48;;;11.18;;
72926;SDS011;61071;51.618;19.388;2022-10-16T16:12:38;20.63;;;11.57;;
72926;SDS011;61071;51.618;19.388;2022-10-16T16:15:05;16.88;;;10.63;;
72926;SDS011;61071;51.618;19.388;2022-10-16T16:17:33;19.30;;;13.57;;
72926;SDS011;61071;51.618;19.388;2022-10-16T16:20:00;25.27;;;15.02;;
72926;SDS011;61071;51.618;19.388;2022-10-16T16:22:26;15.73;;;11.82;;
72926;SDS011;61071;51.618;19.388;2022-10-16T16:24:52;17.80;;;11.75;;
72926;SDS011;61071;51.618;19.388;2022-10-16T16:27:18;18.02;;;12.10;;
72926;SDS011;61071;51.618;19.388;2022-10-16T16:29:45;18.40;;;13.65;;
72926;SDS011;61071;51.618;19.388;2022-10-16T16:32:11;24.20;;;14.60;;
72926;SDS011;61071;51.618;19.388;2022-10-16T16:34:37;23.60;;;15.30;;
72926;SDS011;61071;51.618;19.388;2022-10-16T16:37:03;29.83;;;17.63;;
72926;SDS011;61071;51.618;19.388;2022-10-16T16:39:29;26.73;;;17.35;;